Time;durP1;ratioP1;P1;durP2;ratioP2;P2;SDS_P1;SDS_P2;PMS_P1;PMS_P2;Temp;Humidity;BMP_temperature;BMP_pressure;BME280_temperature;BME280_humidity;BME280_pressure;Samples;Min_cycle;Max_cycle;Signal;HPM_P1;HPM_P2
2022/07/15 00:02:10;;;;;;;6.32;2.28;;;29.70;48.20;;;;;;5057027;28;20024;-81
2022/07/15 00:04:36;;;;;;;7.45;2.40;;;30.10;47.80;;;;;;5074390;28;20028;-82
2022/07/15 00:07:03;;;;;;;4.13;2.60;;;30.40;47.40;;;;;;5052502;28;20472;-85
2022/07/15 00:12:13;;;;;;;3.78;2.53;;;30.90;47.00;;;;;;5072081;28;20166;-81
2022/07/15 00:14:39;;;;;;;3.75;2.42;;;31.10;47.00;;;;;;5072993;28;20028;-85
2022/07/15 00:17:06;;;;;;;6.00;2.55;;;31.30;47.10;;;;;;5062788;28;20474;-78
2022/07/15 00:19:33;;;;;;;4.57;2.60;;;31.50;46.60;;;;;;5048157;28;20036;-81
2022/07/15 00:21:59;;;;;;;4.22;2.50;;;31.50;46.70;;;;;;5057259;28;20021;-81
2022/07/15 00:24:25;;;;;;;3.88;2.67;;;31.80;46.60;;;;;;5053524;28;20078;-79
2022/07/15 00:26:50;;;;;;;4.80;2.65;;;32.00;46.70;;;;;;5054487;28;20024;-80
2022/07/15 00:29:16;;;;;;;3.88;2.40;;;32.00;46.40;;;;;;5073493;28;20033;-81
2022/07/15 00:31:42;;;;;;;3.70;2.30;;;32.10;46.60;;;;;;5055030;28;20041;-81
2022/07/15 00:34:07;;;;;;;4.07;2.60;;;32.20;46.80;;;;;;5054520;28;20064;-90
2022/07/15 00:36:33;;;;;;;5.13;2.40;;;32.30;46.60;;;;;;5054584;28;20115;-78
2022/07/15 00:38:59;;;;;;;3.60;2.47;;;32.40;46.60;;;;;;5067466;28;20024;-83
2022/07/15 00:41:25;;;;;;;7.10;2.70;;;32.30;47.00;;;;;;5053727;28;20028;-86
2022/07/15 00:43:50;;;;;;;7.35;2.70;;;32.30;47.20;;;;;;5071608;28;20058;-81
2022/07/15 00:46:18;;;;;;;4.53;2.47;;;32.20;47.10;;;;;;5069471;28;20029;-84
2022/07/15 00:48:44;;;;;;;6.10;2.80;;;32.10;47.00;;;;;;5039388;28;20118;-84
2022/07/15 00:51:10;;;;;;;5.65;2.83;;;32.30;47.30;;;;;;5071592;28;20027;-78
2022/07/15 00:53:38;;;;;;;4.47;2.70;;;32.30;47.20;;;;;;5071514;28;20032;-80
2022/07/15 00:56:07;;;;;;;4.72;2.65;;;32.40;47.00;;;;;;5072027;28;20028;-89
2022/07/15 00:58:37;;;;;;;5.67;2.97;;;32.30;47.60;;;;;;5053518;28;20111;-81
2022/07/15 01:01:03;;;;;;;6.30;2.60;;;32.20;47.90;;;;;;5071424;28;20028;-77
2022/07/15 01:03:31;;;;;;;6.40;2.80;;;32.30;47.90;;;;;;5054762;28;20028;-81
2022/07/15 01:05:57;;;;;;;7.18;3.00;;;32.20;47.80;;;;;;5071848;28;20036;-88
2022/07/15 01:08:23;;;;;;;8.07;3.40;;;32.00;48.00;;;;;;5054500;28;20575;-86
2022/07/15 01:10:49;;;;;;;6.45;2.70;;;32.00;48.00;;;;;;5054019;28;20037;-81
2022/07/15 01:13:16;;;;;;;5.22;2.88;;;32.10;48.00;;;;;;5064621;28;20048;-87
2022/07/15 01:15:42;;;;;;;4.32;2.50;;;32.10;47.80;;;;;;5063598;28;20391;-80
2022/07/15 01:18:08;;;;;;;9.40;2.70;;;32.30;47.70;;;;;;5054543;28;20537;-76
2022/07/15 01:20:33;;;;;;;6.05;2.80;;;32.20;47.60;;;;;;5065528;28;20021;-80
2022/07/15 01:23:00;;;;;;;4.00;2.70;;;32.00;47.70;;;;;;5047841;28;20021;-81
2022/07/15 01:25:27;;;;;;;4.95;2.67;;;31.90;47.70;;;;;;5057087;28;20029;-79
2022/07/15 01:27:52;;;;;;;4.53;2.50;;;31.80;47.80;;;;;;5041312;28;20442;-83
2022/07/15 01:30:18;;;;;;;5.68;2.42;;;31.50;48.20;;;;;;5053726;28;20029;-85
2022/07/15 01:32:44;;;;;;;5.00;2.88;;;31.20;48.40;;;;;;5055925;28;20025;-85
2022/07/15 01:35:09;;;;;;;8.02;2.85;;;31.30;48.30;;;;;;5055069;28;20056;-80
2022/07/15 01:37:35;;;;;;;6.82;3.10;;;31.60;48.30;;;;;;5054930;28;20051;-79
2022/07/15 01:40:02;;;;;;;4.80;2.50;;;31.70;48.20;;;;;;5055355;28;20550;-78
2022/07/15 01:42:28;;;;;;;4.82;2.50;;;31.70;48.20;;;;;;5053760;28;20033;-81
2022/07/15 01:44:54;;;;;;;5.45;2.40;;;31.80;48.10;;;;;;5073378;28;20070;-79
2022/07/15 01:47:20;;;;;;;3.83;2.17;;;31.60;48.50;;;;;;5073669;28;20086;-80
2022/07/15 01:49:45;;;;;;;5.03;2.10;;;30.90;48.20;;;;;;5071376;28;20078;-79
2022/07/15 01:52:11;;;;;;;3.63;2.28;;;30.90;48.30;;;;;;5054296;28;20048;-78
2022/07/15 01:54:37;;;;;;;3.83;2.40;;;31.30;48.20;;;;;;5071779;28;20479;-80
2022/07/15 01:57:03;;;;;;;5.80;2.13;;;31.60;47.80;;;;;;5053533;28;20082;-84
2022/07/15 01:59:29;;;;;;;2.95;2.00;;;31.70;47.70;;;;;;5070418;28;20387;-78
2022/07/15 02:01:57;;;;;;;3.20;2.20;;;31.70;47.40;;;;;;5072788;28;20467;-80
2022/07/15 02:04:23;;;;;;;4.82;2.10;;;31.50;47.80;;;;;;5070808;28;20529;-79
2022/07/15 02:06:49;;;;;;;3.35;2.20;;;31.40;48.00;;;;;;5069340;28;20429;-81
2022/07/15 02:09:15;;;;;;;3.70;2.03;;;31.70;47.40;;;;;;5059095;28;20029;-80
2022/07/15 02:11:41;;;;;;;4.68;2.10;;;31.60;47.20;;;;;;5076361;28;20020;-80
2022/07/15 02:14:07;;;;;;;3.85;2.15;;;31.70;46.80;;;;;;5076248;28;20387;-81
2022/07/15 02:16:34;;;;;;;3.97;2.10;;;31.60;47.00;;;;;;5058713;28;20032;-77
2022/07/15 02:19:01;;;;;;;3.70;2.10;;;31.60;46.90;;;;;;5057745;28;20033;-79
2022/07/15 02:21:27;;;;;;;3.40;2.42;;;31.50;47.20;;;;;;5057667;28;20467;-81
2022/07/15 02:23:59;;;;;;;3.83;1.98;;;31.50;47.40;;;;;;5056828;28;20024;-78
2022/07/15 02:26:25;;;;;;;3.08;2.20;;;31.50;47.60;;;;;;5058996;28;20013;-80
2022/07/15 02:28:52;;;;;;;3.13;1.90;;;31.60;47.70;;;;;;5074710;28;20098;-87
2022/07/15 02:31:18;;;;;;;3.38;1.92;;;31.60;47.60;;;;;;5076845;28;20049;-83
2022/07/15 02:33:44;;;;;;;3.38;1.90;;;31.40;46.30;;;;;;5072126;28;20028;-84
2022/07/15 02:36:12;;;;;;;3.28;1.70;;;31.40;46.10;;;;;;5057131;28;20092;-82
2022/07/15 02:38:38;;;;;;;3.75;1.70;;;31.40;45.60;;;;;;5057888;28;20029;-81
2022/07/15 02:41:04;;;;;;;2.67;1.58;;;31.40;44.80;;;;;;5058338;28;20057;-80
2022/07/15 02:43:30;;;;;;;3.20;1.80;;;31.10;45.20;;;;;;5057900;28;20025;-80
2022/07/15 02:45:56;;;;;;;2.95;1.50;;;31.00;44.90;;;;;;5075374;28;20027;-85
2022/07/15 02:48:22;;;;;;;3.53;1.55;;;31.00;45.10;;;;;;5068526;28;20033;-80
2022/07/15 02:50:48;;;;;;;2.72;1.60;;;30.70;45.30;;;;;;5057081;28;20021;-79
2022/07/15 02:53:15;;;;;;;2.95;1.42;;;31.00;44.90;;;;;;5065749;28;20029;-81
2022/07/15 02:55:41;;;;;;;3.15;1.60;;;31.10;44.70;;;;;;5056282;28;20048;-75
2022/07/15 02:58:07;;;;;;;4.88;1.60;;;31.00;44.90;;;;;;5069488;28;20384;-84
2022/07/15 03:00:33;;;;;;;2.92;1.30;;;31.20;44.70;;;;;;5074755;28;20063;-87
2022/07/15 03:02:59;;;;;;;2.40;1.40;;;31.20;44.50;;;;;;5075933;28;20029;-80
2022/07/15 03:05:25;;;;;;;3.70;1.50;;;31.10;44.50;;;;;;5057203;28;20028;-79
2022/07/15 03:07:51;;;;;;;4.25;1.60;;;30.80;45.00;;;;;;5052090;28;20025;-89
2022/07/15 03:10:17;;;;;;;2.90;1.50;;;30.90;45.00;;;;;;5055428;28;20505;-80
2022/07/15 03:12:42;;;;;;;4.05;1.40;;;31.30;45.00;;;;;;5059382;28;20031;-87
2022/07/15 03:15:11;;;;;;;2.60;1.45;;;31.40;45.00;;;;;;5056534;28;20387;-79
2022/07/15 03:17:39;;;;;;;2.75;1.60;;;31.20;44.80;;;;;;5054931;28;20021;-79
2022/07/15 03:20:06;;;;;;;3.05;1.70;;;31.30;44.90;;;;;;5056911;28;20017;-82
2022/07/15 03:22:33;;;;;;;2.88;1.60;;;31.20;45.00;;;;;;5072123;28;20036;-77
2022/07/15 03:24:58;;;;;;;3.60;1.60;;;30.90;45.60;;;;;;5075519;28;20460;-81
2022/07/15 03:27:24;;;;;;;3.55;1.60;;;30.80;45.70;;;;;;5055937;28;20052;-76
2022/07/15 03:29:50;;;;;;;3.55;1.70;;;30.90;45.80;;;;;;5074556;28;20043;-77
2022/07/15 03:32:19;;;;;;;4.22;1.77;;;30.80;46.10;;;;;;5074133;28;20049;-77
2022/07/15 03:34:45;;;;;;;2.30;1.50;;;30.90;45.90;;;;;;5071578;28;20033;-86
2022/07/15 03:37:11;;;;;;;2.50;1.60;;;31.10;46.10;;;;;;5052255;28;20029;-79
2022/07/15 03:39:38;;;;;;;3.25;1.80;;;31.30;46.00;;;;;;5055855;28;20040;-80
2022/07/15 03:42:04;;;;;;;2.85;1.60;;;31.10;46.20;;;;;;5055556;28;20387;-76
2022/07/15 03:44:31;;;;;;;3.30;1.73;;;30.70;46.60;;;;;;5057749;28;20028;-88
2022/07/15 03:46:56;;;;;;;3.45;1.60;;;30.50;47.10;;;;;;5056607;28;20040;-86
2022/07/15 03:49:22;;;;;;;2.60;1.58;;;30.50;47.40;;;;;;5073180;28;20036;-82
2022/07/15 03:51:48;;;;;;;4.03;1.70;;;30.50;47.50;;;;;;5056895;28;20013;-82
2022/07/15 03:54:14;;;;;;;2.95;1.70;;;30.50;47.60;;;;;;5073565;28;20028;-89
2022/07/15 03:56:40;;;;;;;3.28;1.67;;;30.60;47.60;;;;;;5057320;28;20415;-85
2022/07/15 03:59:06;;;;;;;2.92;1.80;;;30.40;47.80;;;;;;5070883;28;20032;-79
2022/07/15 04:01:32;;;;;;;3.15;1.65;;;30.40;47.90;;;;;;5057647;28;20036;-90
2022/07/15 04:03:58;;;;;;;4.82;2.00;;;30.50;48.00;;;;;;5057756;28;20429;-78
2022/07/15 04:06:24;;;;;;;3.67;1.85;;;30.60;48.00;;;;;;5073151;28;20511;-79
2022/07/15 04:08:51;;;;;;;3.67;1.80;;;30.30;48.40;;;;;;5073054;28;20036;-80
2022/07/15 04:11:17;;;;;;;4.18;1.70;;;30.30;48.60;;;;;;5045136;28;20468;-81
2022/07/15 04:13:44;;;;;;;3.00;1.70;;;30.00;48.90;;;;;;5072492;28;20083;-76
2022/07/15 04:16:11;;;;;;;4.25;2.00;;;29.90;49.60;;;;;;5074698;28;20073;-76
2022/07/15 04:18:37;;;;;;;4.72;2.00;;;29.70;49.70;;;;;;5069720;28;20028;-85
2022/07/15 04:21:03;;;;;;;91.35;5.57;;;29.30;50.50;;;;;;5047219;28;20032;-80
2022/07/15 04:23:30;;;;;;;9.02;2.22;;;29.10;51.00;;;;;;5055615;28;20075;-80
2022/07/15 04:25:55;;;;;;;4.15;2.10;;;28.50;51.70;;;;;;5072711;28;20380;-88
2022/07/15 04:28:22;;;;;;;4.60;2.78;;;28.20;52.40;;;;;;5055543;28;20035;-79
2022/07/15 04:30:49;;;;;;;6.70;2.35;;;27.80;53.00;;;;;;5072915;28;20040;-82
2022/07/15 04:33:14;;;;;;;5.57;2.40;;;27.60;53.80;;;;;;5072477;28;20028;-82
2022/07/15 04:35:41;;;;;;;3.55;2.50;;;27.60;54.00;;;;;;5056225;28;20021;-82
2022/07/15 04:38:07;;;;;;;5.82;2.53;;;27.50;54.30;;;;;;5073928;28;20032;-82
2022/07/15 04:40:33;;;;;;;4.53;2.60;;;27.20;55.10;;;;;;5057113;28;20031;-78
2022/07/15 04:42:59;;;;;;;5.63;2.30;;;27.20;55.60;;;;;;5064335;28;20064;-78
2022/07/15 04:45:26;;;;;;;5.47;2.50;;;27.00;55.80;;;;;;5053054;28;20051;-79
2022/07/15 04:47:52;;;;;;;7.10;2.60;;;26.80;56.20;;;;;;5064717;28;20025;-81
2022/07/15 04:53:04;;;;;;;7.10;2.70;;;26.80;56.50;;;;;;5069508;28;20101;-77
2022/07/15 04:55:31;;;;;;;4.75;2.50;;;26.10;58.40;;;;;;5069434;28;20410;-85
2022/07/15 04:57:57;;;;;;;6.53;4.00;;;26.10;59.00;;;;;;5056458;28;20105;-80
2022/07/15 05:00:23;;;;;;;4.38;2.50;;;26.10;59.30;;;;;;5055956;28;20064;-76
2022/07/15 05:02:49;;;;;;;5.93;2.33;;;26.20;59.30;;;;;;5055324;28;20078;-81
2022/07/15 05:05:16;;;;;;;3.88;2.42;;;26.10;59.50;;;;;;5055175;28;20122;-81
2022/07/15 05:07:42;;;;;;;4.90;2.30;;;26.20;59.60;;;;;;5075970;28;20060;-88
2022/07/15 05:10:09;;;;;;;4.97;2.63;;;26.30;59.30;;;;;;5075337;28;20111;-83
2022/07/15 05:12:35;;;;;;;4.47;2.60;;;26.50;59.10;;;;;;5074915;28;20070;-78
2022/07/15 05:15:02;;;;;;;4.32;2.80;;;26.50;60.40;;;;;;5057335;28;20028;-80
2022/07/15 05:17:28;;;;;;;5.30;2.97;;;26.40;60.80;;;;;;5057179;28;20020;-85
2022/07/15 05:19:54;;;;;;;7.38;2.75;;;26.40;61.20;;;;;;5074941;28;20031;-79
2022/07/15 05:22:22;;;;;;;4.30;2.70;;;26.40;61.10;;;;;;5074674;28;20031;-82
2022/07/15 05:24:48;;;;;;;4.15;2.67;;;26.40;61.10;;;;;;5057258;28;20048;-79
2022/07/15 05:27:14;;;;;;;6.70;3.53;;;26.50;61.20;;;;;;5075052;28;20025;-84
2022/07/15 05:29:39;;;;;;;4.28;2.80;;;26.40;61.50;;;;;;5056156;28;20043;-78
2022/07/15 05:32:05;;;;;;;6.43;2.90;;;26.30;61.90;;;;;;5053395;28;20049;-83
2022/07/15 05:34:31;;;;;;;5.40;2.90;;;26.30;61.70;;;;;;5053693;28;20021;-79
2022/07/15 05:36:57;;;;;;;4.38;2.85;;;26.40;62.00;;;;;;5053926;28;20021;-82
2022/07/15 05:39:23;;;;;;;4.78;2.70;;;26.30;62.10;;;;;;5054539;28;20056;-88
2022/07/15 05:41:49;;;;;;;4.60;2.90;;;26.70;61.60;;;;;;5055919;28;20025;-88
2022/07/15 05:44:15;;;;;;;4.38;2.70;;;26.90;60.80;;;;;;5059002;28;20490;-83
2022/07/15 05:46:41;;;;;;;5.18;2.80;;;27.10;60.40;;;;;;5058542;28;20025;-80
2022/07/15 05:49:06;;;;;;;4.90;3.10;;;27.10;60.30;;;;;;5056061;28;20033;-85
2022/07/15 05:51:33;;;;;;;4.85;2.90;;;27.30;60.00;;;;;;5056723;28;20036;-78
2022/07/15 05:54:00;;;;;;;3.90;2.67;;;27.50;60.00;;;;;;4706506;28;9999901;-82
2022/07/15 05:56:26;;;;;;;4.35;2.67;;;27.90;59.40;;;;;;5053934;28;20107;-88
2022/07/15 05:58:51;;;;;;;5.53;2.85;;;27.90;59.20;;;;;;5055846;28;20080;-79
2022/07/15 06:01:17;;;;;;;5.05;2.83;;;27.70;59.00;;;;;;5053859;28;20025;-80
2022/07/15 06:03:43;;;;;;;3.85;2.70;;;27.30;59.80;;;;;;5055188;28;20108;-82
2022/07/15 06:06:09;;;;;;;3.53;2.53;;;27.40;59.50;;;;;;5055878;28;20028;-85
2022/07/15 06:08:35;;;;;;;6.53;3.85;;;27.60;59.80;;;;;;5054652;28;20094;-82
2022/07/15 06:11:01;;;;;;;4.22;2.80;;;27.50;59.40;;;;;;5054009;28;20029;-76
2022/07/15 06:13:27;;;;;;;4.25;2.80;;;27.60;59.20;;;;;;5055719;28;20033;-86
2022/07/15 06:15:53;;;;;;;4.38;2.70;;;27.60;59.40;;;;;;5056022;28;20032;-83
2022/07/15 06:18:19;;;;;;;4.28;2.90;;;27.50;60.00;;;;;;5054272;28;20021;-83
2022/07/15 06:20:47;;;;;;;5.20;2.80;;;27.40;59.80;;;;;;5058336;28;20022;-80
2022/07/15 06:23:12;;;;;;;3.40;2.60;;;27.30;60.10;;;;;;5058164;28;20086;-86
2022/07/15 06:25:38;;;;;;;4.82;2.80;;;27.10;60.20;;;;;;5056221;28;20021;-86
2022/07/15 06:28:04;;;;;;;4.55;2.50;;;27.40;60.00;;;;;;5055257;28;20024;-80
2022/07/15 06:30:33;;;;;;;3.70;2.90;;;27.70;59.70;;;;;;5054321;28;20106;-80
2022/07/15 06:32:58;;;;;;;4.07;2.70;;;27.80;59.30;;;;;;5055898;28;20017;-77
2022/07/15 06:35:24;;;;;;;3.63;2.63;;;27.90;59.20;;;;;;5054454;28;20124;-81
2022/07/15 06:37:51;;;;;;;4.22;2.70;;;28.00;58.80;;;;;;5055805;28;20021;-79
2022/07/15 06:40:17;;;;;;;4.53;2.70;;;28.00;58.60;;;;;;5055119;28;20020;-78
2022/07/15 06:42:43;;;;;;;5.10;2.83;;;27.90;59.60;;;;;;5055576;28;20025;-80
2022/07/15 06:45:10;;;;;;;4.65;3.10;;;27.80;59.20;;;;;;5054439;28;20383;-82
2022/07/15 06:47:36;;;;;;;3.33;2.53;;;28.10;59.00;;;;;;5054228;28;20059;-90
2022/07/15 06:50:02;;;;;;;3.63;2.70;;;28.20;58.60;;;;;;5053873;28;20120;-78
2022/07/15 06:52:27;;;;;;;4.00;2.65;;;28.30;58.80;;;;;;5054122;28;20610;-77
2022/07/15 06:54:53;;;;;;;5.07;2.72;;;28.50;58.50;;;;;;5054572;28;20067;-79
2022/07/15 06:57:19;;;;;;;4.20;2.70;;;28.60;58.20;;;;;;5054148;28;20025;-82
2022/07/15 06:59:45;;;;;;;4.53;2.92;;;28.50;58.20;;;;;;5055437;28;20036;-76
2022/07/15 07:02:10;;;;;;;3.72;2.80;;;28.40;58.50;;;;;;5055230;28;20475;-78
2022/07/15 07:04:36;;;;;;;3.83;2.65;;;28.30;58.20;;;;;;5055760;28;20459;-83
2022/07/15 07:07:02;;;;;;;6.30;2.80;;;28.20;58.60;;;;;;5055214;28;20029;-79
2022/07/15 07:09:27;;;;;;;3.75;2.65;;;28.20;59.00;;;;;;5055229;28;20047;-78
2022/07/15 07:11:53;;;;;;;6.97;2.50;;;28.50;58.70;;;;;;5056189;28;20370;-80
2022/07/15 07:14:19;;;;;;;4.30;2.92;;;28.70;58.00;;;;;;5057075;28;20048;-80
2022/07/15 07:16:46;;;;;;;4.60;2.72;;;28.90;57.90;;;;;;5054880;28;20028;-76
2022/07/15 07:19:13;;;;;;;4.32;2.80;;;28.80;57.80;;;;;;5057046;28;20021;-75
2022/07/15 07:21:39;;;;;;;5.72;2.90;;;28.70;57.90;;;;;;5055338;28;20021;-79
2022/07/15 07:24:07;;;;;;;3.60;2.63;;;28.80;57.90;;;;;;5056182;28;20391;-82
2022/07/15 07:26:35;;;;;;;3.90;2.70;;;29.00;57.70;;;;;;5054856;28;20431;-78
2022/07/15 07:29:00;;;;;;;4.35;2.90;;;29.30;57.70;;;;;;5054779;28;20032;-78
2022/07/15 07:31:26;;;;;;;4.00;2.83;;;29.10;57.40;;;;;;5065894;28;20051;-79
2022/07/15 07:33:58;;;;;;;4.88;2.80;;;29.30;57.40;;;;;;5074765;28;20454;-79
2022/07/15 07:36:25;;;;;;;3.90;2.70;;;29.40;57.50;;;;;;5074035;28;20016;-77
2022/07/15 07:38:51;;;;;;;3.95;2.70;;;29.40;57.10;;;;;;5074547;28;20460;-78
2022/07/15 07:41:17;;;;;;;4.18;2.75;;;29.50;57.10;;;;;;5075453;28;20028;-79
2022/07/15 07:43:43;;;;;;;4.65;2.70;;;29.30;57.20;;;;;;5057127;28;20025;-75
2022/07/15 07:46:10;;;;;;;3.67;2.60;;;29.40;57.00;;;;;;5075795;28;20025;-87
2022/07/15 07:48:38;;;;;;;3.45;2.70;;;29.30;56.90;;;;;;5075596;28;20028;-87
2022/07/15 07:51:04;;;;;;;4.50;3.00;;;29.00;57.10;;;;;;5075097;28;20027;-80
2022/07/15 07:53:30;;;;;;;5.25;3.03;;;29.00;57.20;;;;;;5058054;28;20029;-79
2022/07/15 07:55:56;;;;;;;3.67;2.95;;;29.10;57.10;;;;;;5075844;28;20020;-84
2022/07/15 07:58:23;;;;;;;4.28;2.75;;;29.20;57.10;;;;;;5075364;28;20102;-81
2022/07/15 08:00:51;;;;;;;4.13;2.95;;;29.20;57.00;;;;;;5041362;28;20032;-78
2022/07/15 08:03:17;;;;;;;4.00;2.90;;;29.50;56.70;;;;;;5058092;28;20029;-80
2022/07/15 08:05:44;;;;;;;5.57;3.30;;;29.70;56.30;;;;;;5073767;28;20029;-79
2022/07/15 08:08:12;;;;;;;3.60;2.90;;;30.10;56.00;;;;;;5040569;28;20070;-79
2022/07/15 08:10:39;;;;;;;6.13;3.25;;;30.30;55.50;;;;;;5057692;28;20025;-79
2022/07/15 08:13:05;;;;;;;3.80;3.05;;;30.50;55.20;;;;;;5075219;28;20017;-79
2022/07/15 08:15:30;;;;;;;3.88;2.65;;;30.60;55.00;;;;;;5075365;28;20035;-85
2022/07/15 08:17:56;;;;;;;4.93;2.97;;;30.80;54.70;;;;;;4358058;28;10000795;-78
2022/07/15 08:20:22;;;;;;;4.47;2.95;;;30.60;54.00;;;;;;5056832;28;20035;-79
2022/07/15 08:22:48;;;;;;;4.78;3.17;;;30.60;53.90;;;;;;5074883;28;20486;-84
2022/07/15 08:25:14;;;;;;;4.70;2.90;;;30.50;53.80;;;;;;5055443;28;20024;-82
2022/07/15 08:27:40;;;;;;;3.92;3.13;;;30.60;53.90;;;;;;5055725;28;20028;-83
2022/07/15 08:30:06;;;;;;;6.97;2.90;;;30.70;53.20;;;;;;5073278;28;20032;-84
2022/07/15 08:32:32;;;;;;;4.70;3.13;;;30.60;53.00;;;;;;5055601;28;20029;-78
2022/07/15 08:34:57;;;;;;;4.55;2.97;;;30.40;52.80;;;;;;5073232;28;20032;-89
2022/07/15 08:37:26;;;;;;;6.30;2.95;;;30.60;53.30;;;;;;5073310;28;20051;-82
2022/07/15 08:39:52;;;;;;;6.30;2.90;;;30.90;53.00;;;;;;5055589;28;20433;-84
2022/07/15 08:42:18;;;;;;;5.68;2.92;;;31.00;52.60;;;;;;5073449;28;20521;-84
2022/07/15 08:44:44;;;;;;;4.93;3.15;;;31.00;51.60;;;;;;5055157;28;20111;-80
2022/07/15 08:47:10;;;;;;;8.63;4.10;;;30.80;51.90;;;;;;5055726;28;20027;-80
2022/07/15 08:49:39;;;;;;;4.28;2.70;;;30.70;51.90;;;;;;5073229;28;20455;-90
2022/07/15 08:52:05;;;;;;;5.03;3.20;;;30.80;51.90;;;;;;5073241;28;20099;-85
2022/07/15 08:54:32;;;;;;;3.97;3.10;;;30.70;51.20;;;;;;5055254;28;20478;-86
2022/07/15 08:56:58;;;;;;;7.35;3.35;;;30.70;51.70;;;;;;5073408;28;20060;-82
2022/07/15 08:59:24;;;;;;;4.38;3.08;;;30.70;51.50;;;;;;5055290;28;20025;-86
2022/07/15 09:01:50;;;;;;;5.75;3.05;;;30.80;51.40;;;;;;5055231;28;20032;-80
2022/07/15 09:04:17;;;;;;;5.75;3.03;;;30.90;51.40;;;;;;5073357;28;20028;-77
2022/07/15 09:06:46;;;;;;;4.68;2.90;;;30.90;51.60;;;;;;5073092;28;20101;-77
2022/07/15 09:09:31;;;;;;;3.78;2.80;;;31.20;50.70;;;;;;5072946;28;20079;-84
2022/07/15 09:12:08;;;;;;;4.03;2.80;;;31.30;50.30;;;;;;5074229;28;20020;-82
2022/07/15 09:14:35;;;;;;;4.55;2.83;;;31.50;50.90;;;;;;5055923;28;20524;-85
2022/07/15 09:17:10;;;;;;;7.60;3.10;;;31.70;50.40;;;;;;5058540;28;20029;-80
2022/07/15 09:20:03;;;;;;;3.70;2.67;;;32.00;47.80;;;;;;5078494;28;20467;-84
2022/07/15 09:22:32;;;;;;;6.30;3.08;;;31.70;47.40;;;;;;5060995;28;20028;-89
2022/07/15 09:25:07;;;;;;;7.55;2.60;;;31.60;47.50;;;;;;5060333;28;20130;-80
2022/07/15 09:27:37;;;;;;;4.80;2.42;;;31.80;47.60;;;;;;5060372;28;20070;-82
2022/07/15 09:36:12;;;;;;;5.78;2.70;;;32.90;45.60;;;;;;5078610;28;20509;-89
2022/07/15 09:38:51;;;;;;;3.65;2.67;;;32.50;45.50;;;;;;5060670;28;20035;-89
2022/07/15 09:41:26;;;;;;;7.28;2.70;;;32.10;46.40;;;;;;5077222;28;20032;-79
2022/07/15 09:43:55;;;;;;;6.25;3.08;;;32.00;47.20;;;;;;5076492;28;20021;-77
2022/07/15 09:46:24;;;;;;;3.72;2.45;;;32.10;44.80;;;;;;5076606;28;20107;-80
2022/07/15 09:48:52;;;;;;;5.38;2.50;;;32.50;44.20;;;;;;5076404;28;20082;-85
2022/07/15 09:51:18;;;;;;;4.55;2.65;;;32.50;44.00;;;;;;5077288;28;20016;-80
2022/07/15 09:53:44;;;;;;;5.65;2.80;;;32.70;43.80;;;;;;5076640;28;20031;-82
2022/07/15 09:56:14;;;;;;;3.67;2.20;;;32.70;43.80;;;;;;5076179;28;20013;-84
2022/07/15 09:58:42;;;;;;;5.70;2.30;;;33.10;41.60;;;;;;5059579;28;20376;-79
2022/07/15 10:01:10;;;;;;;4.50;2.40;;;33.20;42.20;;;;;;5076033;28;20396;-81
2022/07/15 10:03:37;;;;;;;4.28;2.33;;;32.90;40.10;;;;;;5076295;28;20052;-80
2022/07/15 10:06:04;;;;;;;5.15;2.42;;;32.90;41.10;;;;;;5076597;28;20376;-81
2022/07/15 10:08:31;;;;;;;5.18;2.50;;;32.70;39.70;;;;;;5076194;28;20028;-80
2022/07/15 10:10:57;;;;;;;5.68;2.50;;;32.80;39.40;;;;;;5075984;28;20506;-82
2022/07/15 10:13:43;;;;;;;4.80;2.50;;;33.00;38.30;;;;;;5075966;28;20036;-81
2022/07/15 10:16:51;;;;;;;6.65;4.60;;;32.80;37.10;;;;;;5075833;28;20028;-81
2022/07/15 10:19:17;;;;;;;5.00;2.30;;;32.30;38.00;;;;;;5075652;28;20099;-84
2022/07/15 10:22:12;;;;;;;5.60;5.07;;;32.10;39.30;;;;;;5075814;28;20028;-79
2022/07/15 10:25:02;;;;;;;7.55;2.45;;;32.20;40.10;;;;;;5075823;28;20086;-81
2022/07/15 10:27:59;;;;;;;5.35;2.72;;;32.50;40.50;;;;;;5076828;28;20032;-78
2022/07/15 10:30:25;;;;;;;4.13;2.42;;;32.70;40.30;;;;;;5076331;28;20136;-80
2022/07/15 10:33:03;;;;;;;5.50;2.67;;;32.70;40.60;;;;;;5076726;28;20024;-83
2022/07/15 10:35:36;;;;;;;5.05;2.35;;;32.50;39.80;;;;;;5075452;28;20024;-83
2022/07/15 10:38:20;;;;;;;4.53;2.50;;;32.60;41.00;;;;;;5057744;28;20032;-85
2022/07/15 10:41:06;;;;;;;4.78;2.35;;;32.80;41.80;;;;;;5057548;28;20107;-85
2022/07/15 10:43:47;;;;;;;6.30;4.10;;;33.10;40.00;;;;;;5057583;28;20390;-78
2022/07/15 10:46:15;;;;;;;8.23;2.38;;;32.90;40.30;;;;;;5075427;28;20056;-85
2022/07/15 10:48:41;;;;;;;5.43;2.80;;;33.20;40.10;;;;;;5075286;28;20067;-81
2022/07/15 10:51:07;;;;;;;4.82;2.60;;;33.40;39.90;;;;;;5075002;28;20054;-79
2022/07/15 10:53:41;;;;;;;17.02;15.93;;;33.80;40.20;;;;;;5057558;28;20029;-86
2022/07/15 10:56:42;;;;;;;4.90;2.47;;;34.00;39.90;;;;;;5074957;28;20418;-84
2022/07/15 10:59:23;;;;;;;6.03;2.58;;;33.50;39.20;;;;;;5075508;28;20028;-85
2022/07/15 11:02:01;;;;;;;4.22;2.47;;;33.50;39.60;;;;;;5076879;28;20011;-78
2022/07/15 11:04:29;;;;;;;5.38;2.35;;;33.40;39.50;;;;;;5074861;28;20024;-80
2022/07/15 11:07:07;;;;;;;6.10;2.30;;;33.10;38.50;;;;;;5075653;28;20100;-81
2022/07/15 11:10:11;;;;;;;5.75;2.60;;;33.10;39.10;;;;;;5056944;28;20127;-78
2022/07/15 11:12:37;;;;;;;4.55;2.42;;;32.90;39.20;;;;;;5075929;28;20028;-86
2022/07/15 11:15:12;;;;;;;4.25;2.47;;;32.80;39.30;;;;;;5075972;28;20028;-85
2022/07/15 11:17:46;;;;;;;13.15;2.50;;;33.10;39.60;;;;;;5058209;28;20024;-88
2022/07/15 11:20:17;;;;;;;8.25;2.30;;;33.30;38.80;;;;;;5062359;28;20028;-79
2022/07/15 11:22:47;;;;;;;5.05;2.40;;;33.10;37.90;;;;;;5095767;28;20099;-81
2022/07/15 11:25:34;;;;;;;5.63;2.40;;;33.20;38.60;;;;;;5073911;28;20055;-85
2022/07/15 11:28:12;;;;;;;4.68;2.30;;;33.70;38.60;;;;;;5072171;28;20017;-77
2022/07/15 11:30:42;;;;;;;5.18;3.28;;;34.00;38.40;;;;;;5073285;28;20040;-79
2022/07/15 11:33:13;;;;;;;3.58;2.30;;;34.10;37.10;;;;;;5074560;28;20031;-80
2022/07/15 11:35:47;;;;;;;6.05;2.42;;;34.30;36.70;;;;;;5074604;28;20037;-77
2022/07/15 11:38:13;;;;;;;5.70;2.40;;;34.10;36.90;;;;;;4722397;28;9999617;-83
2022/07/15 11:46:15;;;;;;;4.07;2.45;;;33.50;37.10;;;;;;5072751;28;20050;-81
2022/07/15 11:48:41;;;;;;;6.40;2.67;;;32.90;36.80;;;;;;5056119;28;20032;-86
2022/07/15 11:51:09;;;;;;;5.05;2.20;;;33.00;37.30;;;;;;5055771;28;20502;-79
2022/07/15 11:53:39;;;;;;;3.65;2.38;;;33.20;37.10;;;;;;5073872;28;20032;-79
2022/07/15 11:56:06;;;;;;;3.65;2.20;;;33.30;39.10;;;;;;5074098;28;20028;-77
2022/07/15 11:58:32;;;;;;;4.90;2.58;;;33.40;37.60;;;;;;5073017;28;20437;-77
2022/07/15 12:01:00;;;;;;;4.38;2.47;;;33.70;37.90;;;;;;5064755;28;20107;-81
2022/07/15 12:03:34;;;;;;;4.35;2.30;;;33.80;36.60;;;;;;5074478;28;20032;-83
2022/07/15 12:06:01;;;;;;;4.85;2.10;;;33.50;37.10;;;;;;5073448;28;20016;-86
2022/07/15 12:08:42;;;;;;;8.10;2.53;;;33.70;37.00;;;;;;5073769;28;20017;-80
2022/07/15 12:11:34;;;;;;;5.43;2.30;;;34.00;37.20;;;;;;5073624;28;20077;-80
2022/07/15 12:14:02;;;;;;;6.15;2.50;;;34.20;37.60;;;;;;5073056;28;20109;-79
2022/07/15 12:16:34;;;;;;;5.10;2.50;;;34.10;35.80;;;;;;5073457;28;20373;-83
2022/07/15 12:19:24;;;;;;;7.22;2.60;;;33.90;36.60;;;;;;5073627;28;20017;-79
2022/07/15 12:21:59;;;;;;;6.43;2.30;;;33.20;36.90;;;;;;5055564;28;20071;-81
2022/07/15 12:24:36;;;;;;;4.85;2.20;;;33.30;36.80;;;;;;5073474;28;20020;-80
2022/07/15 12:27:02;;;;;;;9.40;2.30;;;33.70;36.20;;;;;;5054274;28;20367;-83
2022/07/15 12:29:31;;;;;;;4.18;2.30;;;33.90;36.80;;;;;;5055465;28;20115;-79
2022/07/15 12:31:59;;;;;;;4.50;2.20;;;34.10;36.80;;;;;;5073316;28;20052;-82
2022/07/15 12:34:46;;;;;;;4.95;3.45;;;34.50;36.50;;;;;;5055394;28;20039;-84
2022/07/15 12:37:43;;;;;;;7.90;2.72;;;34.30;35.40;;;;;;5070189;28;20059;-80
2022/07/15 12:40:11;;;;;;;5.25;2.70;;;34.00;36.00;;;;;;5069309;28;20085;-82
2022/07/15 12:42:44;;;;;;;4.90;2.40;;;33.40;35.90;;;;;;5053721;28;20102;-79
2022/07/15 12:45:13;;;;;;;6.03;2.10;;;33.10;35.50;;;;;;5054782;28;20183;-79
2022/07/15 12:48:07;;;;;;;5.05;2.22;;;33.20;36.80;;;;;;5055053;28;20020;-82
2022/07/15 12:50:51;;;;;;;4.45;2.20;;;33.40;36.00;;;;;;5072913;28;20039;-83
2022/07/15 12:53:19;;;;;;;4.57;2.20;;;33.20;37.50;;;;;;5073376;28;20025;-80
2022/07/15 12:55:48;;;;;;;4.40;2.10;;;33.40;37.90;;;;;;5055909;28;20021;-76
2022/07/15 12:58:17;;;;;;;6.93;2.40;;;33.60;37.60;;;;;;5074289;28;20459;-82
2022/07/15 13:00:44;;;;;;;4.05;2.22;;;33.70;37.30;;;;;;5073325;28;20082;-82
2022/07/15 13:03:19;;;;;;;5.68;2.45;;;33.10;36.30;;;;;;5073588;28;20509;-80
2022/07/15 13:05:47;;;;;;;5.35;2.13;;;32.80;36.40;;;;;;5073792;28;20093;-80
2022/07/15 13:08:15;;;;;;;3.92;2.10;;;32.70;35.60;;;;;;5055672;28;20033;-80
2022/07/15 13:10:44;;;;;;;4.47;2.30;;;32.90;36.80;;;;;;5073831;28;20372;-80